<?xml version="1.0" encoding="UTF-8" standalone="no" ?>
<gpx xmlns="http://www.topografix.com/GPX/1/1" xmlns:xsi="http://www.w3.org/2001/XMLSchema-instance" xsi:schemaLocation="http://www.topografix.com/GPX/1/1 http://www.topografix.com/GPX/1/1/gpx.xsd" version="1.1" creator="VisuGPX - https://www.visugpx.com">
  <metadata>
    <name>Col de l'Oueil - Col de Beyrede via la signal de Bassia</name>
  </metadata>
  <wpt lat="42.96309" lon="0.30887">
    <ele>1419</ele>
    <name><![CDATA[]]></name>
    <type><![CDATA[GENERIC]]></type>
  </wpt>
  <wpt lat="42.99156" lon="0.31665">
    <ele>1236</ele>
    <name><![CDATA[]]></name>
    <type><![CDATA[GENERIC]]></type>
  </wpt>
  <trk>
    <name><![CDATA[Col de l'Oueil - Col de Beyrede via la signal de Bassia]]></name>
    <trkseg>
      <trkpt lat="42.99156" lon="0.31665">
        <ele>1236</ele>
        <time>2025-02-12T18:37:49.000Z</time>
      </trkpt>
      <trkpt lat="42.99001" lon="0.31541">
        <ele>1233</ele>
        <time>2025-02-12T18:41:14.000Z</time>
      </trkpt>
      <trkpt lat="42.98907" lon="0.31474">
        <ele>1239</ele>
        <time>2025-02-12T18:44:18.000Z</time>
      </trkpt>
      <trkpt lat="42.9884" lon="0.31258">
        <ele>1218</ele>
        <time>2025-02-12T18:47:34.000Z</time>
      </trkpt>
      <trkpt lat="42.98777" lon="0.3109">
        <ele>1233</ele>
        <time>2025-02-12T18:52:46.000Z</time>
      </trkpt>
      <trkpt lat="42.98531" lon="0.31124">
        <ele>1279</ele>
        <time>2025-02-12T19:05:22.000Z</time>
      </trkpt>
      <trkpt lat="42.98458" lon="0.31056">
        <ele>1314</ele>
        <time>2025-02-12T19:13:03.000Z</time>
      </trkpt>
      <trkpt lat="42.98412" lon="0.30812">
        <ele>1358</ele>
        <time>2025-02-12T19:24:07.000Z</time>
      </trkpt>
      <trkpt lat="42.98265" lon="0.30543">
        <ele>1455</ele>
        <time>2025-02-12T19:45:26.000Z</time>
      </trkpt>
      <trkpt lat="42.983" lon="0.30044">
        <ele>1508</ele>
        <time>2025-02-12T20:01:31.000Z</time>
      </trkpt>
      <trkpt lat="42.98373" lon="0.29459">
        <ele>1530</ele>
        <time>2025-02-12T20:13:35.000Z</time>
      </trkpt>
      <trkpt lat="42.9817" lon="0.2968">
        <ele>1627</ele>
        <time>2025-02-12T20:35:10.000Z</time>
      </trkpt>
      <trkpt lat="42.98135" lon="0.298">
        <ele>1664</ele>
        <time>2025-02-12T20:43:19.000Z</time>
      </trkpt>
      <trkpt lat="42.97991" lon="0.29776">
        <ele>1701</ele>
        <time>2025-02-12T20:52:25.000Z</time>
      </trkpt>
      <trkpt lat="42.97929" lon="0.29914">
        <ele>1753</ele>
        <time>2025-02-12T21:03:35.000Z</time>
      </trkpt>
      <trkpt lat="42.97726" lon="0.30101">
        <ele>1835</ele>
        <time>2025-02-12T21:22:19.000Z</time>
      </trkpt>
      <trkpt lat="42.97743" lon="0.30288">
        <ele>1891</ele>
        <time>2025-02-12T21:34:33.000Z</time>
      </trkpt>
      <trkpt lat="42.97726" lon="0.30369">
        <ele>1911</ele>
        <time>2025-02-12T21:39:10.000Z</time>
      </trkpt>
      <trkpt lat="42.97547" lon="0.3001">
        <ele>1824</ele>
        <time>2025-02-12T21:45:14.000Z</time>
      </trkpt>
      <trkpt lat="42.97375" lon="0.3023">
        <ele>1740</ele>
        <time>2025-02-12T21:49:44.000Z</time>
      </trkpt>
      <trkpt lat="42.97368" lon="0.30331">
        <ele>1722</ele>
        <time>2025-02-12T21:51:09.000Z</time>
      </trkpt>
      <trkpt lat="42.97336" lon="0.30422">
        <ele>1678</ele>
        <time>2025-02-12T21:52:33.000Z</time>
      </trkpt>
      <trkpt lat="42.97354" lon="0.30595">
        <ele>1645</ele>
        <time>2025-02-12T21:54:59.000Z</time>
      </trkpt>
      <trkpt lat="42.97228" lon="0.30652">
        <ele>1600</ele>
        <time>2025-02-12T21:57:31.000Z</time>
      </trkpt>
      <trkpt lat="42.96964" lon="0.30686">
        <ele>1543</ele>
        <time>2025-02-12T22:02:34.000Z</time>
      </trkpt>
      <trkpt lat="42.96727" lon="0.30796">
        <ele>1493</ele>
        <time>2025-02-12T22:07:21.000Z</time>
      </trkpt>
      <trkpt lat="42.96569" lon="0.30935">
        <ele>1477</ele>
        <time>2025-02-12T22:10:56.000Z</time>
      </trkpt>
      <trkpt lat="42.9645" lon="0.31012">
        <ele>1442</ele>
        <time>2025-02-12T22:13:27.000Z</time>
      </trkpt>
      <trkpt lat="42.96309" lon="0.30887">
        <ele>1419</ele>
        <time>2025-02-12T22:16:39.000Z</time>
      </trkpt>
    </trkseg>
  </trk>
</gpx>